Time,TemperatureF,DewpointF,PressureIn,WindDirection,WindDirectionDegrees,WindSpeedMPH,WindSpeedGustMPH,Humidity,HourlyPrecipIn,Conditions,Clouds,dailyrainin,SoftwareType,DateUTC
2013-03-01 00:01:00,19.0,13.0,-100.00,West,275,11.0,21.0,75,0.00,,,-99.99,,2013-03-01 07:01:00,
2013-03-01 00:11:00,19.0,13.0,-100.00,West,277,11.0,20.0,75,0.00,,,-99.99,,2013-03-01 07:11:00,
2013-03-01 00:22:00,-999.0,-99.9,-100.00,West,267,17.0,30.0,-999,-99.99,,,-99.99,,2013-03-01 07:22:00,
2013-03-01 00:31:00,20.0,13.0,-100.00,West,267,22.0,40.0,73,0.00,,,-99.99,,2013-03-01 07:31:00,
2013-03-01 00:41:00,20.0,13.0,-100.00,West,264,22.0,35.0,72,0.00,,,-99.99,,2013-03-01 07:41:00,
2013-03-01 00:51:00,21.0,13.0,-100.00,West,263,24.0,33.0,72,0.00,,,-99.99,,2013-03-01 07:51:00,
2013-03-01 01:01:00,21.0,13.0,-100.00,West,261,22.0,34.0,73,0.00,,,-99.99,,2013-03-01 08:01:00,
2013-03-01 01:12:00,-999.0,-99.9,-100.00,West,260,26.0,44.0,-999,-99.99,,,-99.99,,2013-03-01 08:12:00,
2013-03-01 01:21:00,21.0,14.0,-100.00,WSW,258,28.0,44.0,74,0.00,,,-99.99,,2013-03-01 08:21:00,
2013-03-01 01:31:00,21.0,14.0,-100.00,WSW,258,26.0,38.0,74,0.00,,,-99.99,,2013-03-01 08:31:00,
2013-03-01 01:42:00,21.0,14.0,-100.00,WSW,251,30.0,42.0,74,0.00,,,-99.99,,2013-03-01 08:42:00,
2013-03-01 01:52:00,20.0,14.0,-100.00,West,261,26.0,37.0,75,0.00,,,-99.99,,2013-03-01 08:52:00,
2013-03-01 02:01:00,20.0,14.0,-100.00,West,260,23.0,35.0,75,0.00,,,-99.99,,2013-03-01 09:01:00,
2013-03-01 02:11:00,20.0,14.0,-100.00,West,264,24.0,33.0,77,0.00,,,-99.99,,2013-03-01 09:11:00,
2013-03-01 02:21:00,20.0,15.0,-100.00,West,267,24.0,37.0,79,0.00,,,-99.99,,2013-03-01 09:21:00,
2013-03-01 02:31:00,20.0,15.0,-100.00,West,264,26.0,40.0,79,0.00,,,-99.99,,2013-03-01 09:31:00,
2013-03-01 02:41:00,20.0,15.0,-100.00,West,265,25.0,35.0,80,0.00,,,-99.99,,2013-03-01 09:41:00,
2013-03-01 02:51:00,21.0,15.0,-100.00,West,264,26.0,37.0,79,0.00,,,-99.99,,2013-03-01 09:51:00,
2013-03-01 03:01:00,21.0,15.0,-100.00,WSW,257,30.0,45.0,78,0.00,,,-99.99,,2013-03-01 10:01:00,
2013-03-01 03:11:00,21.0,15.0,-100.00,WSW,254,34.0,53.0,78,0.00,,,-99.99,,2013-03-01 10:11:00,
2013-03-01 03:21:00,21.0,15.0,-100.00,West,260,30.0,49.0,79,0.00,,,-99.99,,2013-03-01 10:21:00,
2013-03-01 03:31:00,21.0,16.0,-100.00,WSW,258,32.0,45.0,79,0.00,,,-99.99,,2013-03-01 10:31:00,
2013-03-01 03:41:00,21.0,16.0,-100.00,WSW,253,34.0,45.0,79,0.00,,,-99.99,,2013-03-01 10:41:00,
2013-03-01 03:51:00,21.0,16.0,-100.00,WSW,250,30.0,40.0,80,0.00,,,-99.99,,2013-03-01 10:51:00,
2013-03-01 04:01:00,21.0,16.0,-100.00,WSW,244,33.0,50.0,81,0.00,,,-99.99,,2013-03-01 11:01:00,
2013-03-01 04:11:00,21.0,16.0,-100.00,WSW,250,32.0,42.0,81,0.00,,,-99.99,,2013-03-01 11:11:00,
2013-03-01 04:22:00,21.0,17.0,-100.00,WSW,244,31.0,41.0,82,0.00,,,-99.99,,2013-03-01 11:22:00,
2013-03-01 04:31:00,21.0,17.0,-100.00,WSW,247,32.0,43.0,81,0.00,,,-99.99,,2013-03-01 11:31:00,
2013-03-01 04:41:00,22.0,17.0,-100.00,WSW,247,32.0,47.0,80,0.00,,,-99.99,,2013-03-01 11:41:00,
2013-03-01 04:52:00,22.0,17.0,-100.00,WSW,246,32.0,45.0,80,0.00,,,-99.99,,2013-03-01 11:52:00,
2013-03-01 05:01:00,22.0,17.0,-100.00,WSW,243,34.0,44.0,79,0.00,,,-99.99,,2013-03-01 12:01:00,
2013-03-01 05:11:00,22.0,17.0,-100.00,WSW,244,31.0,41.0,80,0.00,,,-99.99,,2013-03-01 12:11:00,
2013-03-01 05:21:00,22.0,17.0,-100.00,WSW,243,33.0,42.0,80,0.00,,,-99.99,,2013-03-01 12:21:00,
2013-03-01 05:32:00,22.0,18.0,-100.00,WSW,246,32.0,45.0,81,0.00,,,-99.99,,2013-03-01 12:32:00,
2013-03-01 05:41:00,23.0,18.0,-100.00,WSW,244,31.0,44.0,81,0.00,,,-99.99,,2013-03-01 12:41:00,
2013-03-01 05:52:00,-999.0,-99.9,-100.00,WSW,244,28.0,38.0,-999,-99.99,,,-99.99,,2013-03-01 12:52:00,
2013-03-01 06:01:00,22.0,18.0,-100.00,WSW,258,22.0,28.0,82,0.00,,,-99.99,,2013-03-01 13:01:00,
2013-03-01 06:11:00,22.0,18.0,-100.00,WSW,256,20.0,28.0,82,0.00,,,-99.99,,2013-03-01 13:11:00,
2013-03-01 06:21:00,22.0,18.0,-100.00,WSW,258,19.0,26.0,82,0.00,,,-99.99,,2013-03-01 13:21:00,
2013-03-01 06:32:00,23.0,18.0,-100.00,WSW,250,21.0,32.0,80,0.00,,,-99.99,,2013-03-01 13:32:00,
2013-03-01 06:41:00,23.0,18.0,-100.00,WSW,257,19.0,33.0,81,0.00,,,-99.99,,2013-03-01 13:41:00,
2013-03-01 06:51:00,23.0,18.0,-100.00,WSW,253,22.0,34.0,80,0.00,,,-99.99,,2013-03-01 13:51:00,
2013-03-01 07:02:00,-999.0,-99.9,-100.00,WSW,254,18.0,29.0,-999,-99.99,,,-99.99,,2013-03-01 14:02:00,
2013-03-01 07:11:00,23.0,18.0,-100.00,WSW,254,19.0,29.0,80,0.00,,,-99.99,,2013-03-01 14:11:00,
2013-03-01 07:21:00,24.0,18.0,-100.00,WSW,254,19.0,30.0,80,0.00,,,-99.99,,2013-03-01 14:21:00,
2013-03-01 07:31:00,25.0,18.0,-100.00,WSW,243,27.0,35.0,75,0.00,,,-99.99,,2013-03-01 14:31:00,
2013-03-01 07:41:00,24.0,18.0,-100.00,WSW,258,19.0,27.0,78,0.00,,,-99.99,,2013-03-01 14:41:00,
2013-03-01 07:52:00,24.0,18.0,-100.00,WSW,256,19.0,26.0,78,0.00,,,-99.99,,2013-03-01 14:52:00,
2013-03-01 08:01:00,26.0,19.0,-100.00,WSW,248,26.0,35.0,74,0.00,,,-99.99,,2013-03-01 15:01:00,
2013-03-01 08:11:00,26.0,19.0,-100.00,WSW,251,24.0,38.0,74,0.00,,,-99.99,,2013-03-01 15:11:00,
2013-03-01 08:22:00,-999.0,-99.9,-100.00,WSW,257,18.0,32.0,-999,-99.99,,,-99.99,,2013-03-01 15:22:00,
2013-03-01 08:31:00,25.0,19.0,-100.00,West,265,15.0,24.0,77,0.00,,,-99.99,,2013-03-01 15:31:00,
2013-03-01 08:42:00,25.0,19.0,-100.00,West,260,19.0,28.0,77,0.00,,,-99.99,,2013-03-01 15:42:00,
2013-03-01 08:51:00,25.0,19.0,-100.00,WSW,257,22.0,31.0,76,0.00,,,-99.99,,2013-03-01 15:51:00,
2013-03-01 09:01:00,26.0,19.0,-100.00,WSW,253,24.0,36.0,75,0.00,,,-99.99,,2013-03-01 16:01:00,
2013-03-01 09:11:00,27.0,19.0,-100.00,WSW,246,27.0,37.0,74,0.00,,,-99.99,,2013-03-01 16:11:00,
2013-03-01 09:21:00,27.0,20.0,-100.00,WSW,246,30.0,40.0,74,0.00,,,-99.99,,2013-03-01 16:21:00,
2013-03-01 09:31:00,27.0,20.0,-100.00,WSW,247,27.0,35.0,75,0.00,,,-99.99,,2013-03-01 16:31:00,
2013-03-01 09:41:00,27.0,20.0,-100.00,WSW,248,27.0,42.0,75,0.00,,,-99.99,,2013-03-01 16:41:00,
2013-03-01 09:51:00,27.0,20.0,-100.00,WSW,248,34.0,45.0,75,0.00,,,-99.99,,2013-03-01 16:51:00,
2013-03-01 10:01:00,27.0,20.0,-100.00,WSW,257,29.0,41.0,75,0.00,,,-99.99,,2013-03-01 17:01:00,
2013-03-01 10:11:00,27.0,20.0,-100.00,West,261,29.0,40.0,74,0.00,,,-99.99,,2013-03-01 17:11:00,
2013-03-01 10:21:00,-999.0,-99.9,-100.00,West,270,23.0,35.0,-999,-99.99,,,-99.99,,2013-03-01 17:21:00,
2013-03-01 10:31:00,29.0,20.0,-100.00,West,261,24.0,35.0,71,0.00,,,-99.99,,2013-03-01 17:31:00,
2013-03-01 10:41:00,30.0,21.0,-100.00,WSW,256,35.0,49.0,69,0.00,,,-99.99,,2013-03-01 17:41:00,
2013-03-01 10:52:00,30.0,21.0,-100.00,WSW,256,34.0,46.0,67,0.00,,,-99.99,,2013-03-01 17:52:00,
2013-03-01 11:02:00,-999.0,-99.9,-100.00,WSW,254,35.0,45.0,-999,-99.99,,,-99.99,,2013-03-01 18:02:00,
2013-03-01 11:11:00,29.0,20.0,-100.00,WSW,251,35.0,48.0,67,0.00,,,-99.99,,2013-03-01 18:11:00,
2013-03-01 11:21:00,31.0,20.0,-100.00,WSW,257,32.0,45.0,64,0.00,,,-99.99,,2013-03-01 18:21:00,
2013-03-01 11:31:00,31.0,21.0,-100.00,West,260,35.0,50.0,65,0.00,,,-99.99,,2013-03-01 18:31:00,
2013-03-01 11:41:00,31.0,20.0,-100.00,West,261,34.0,48.0,63,0.00,,,-99.99,,2013-03-01 18:41:00,
2013-03-01 11:52:00,31.0,21.0,-100.00,West,261,34.0,49.0,63,0.00,,,-99.99,,2013-03-01 18:52:00,
2013-03-01 12:01:00,31.0,20.0,-100.00,WSW,258,30.0,42.0,65,0.00,,,-99.99,,2013-03-01 19:01:00,
2013-03-01 12:11:00,-999.0,-99.9,-100.00,WSW,257,31.0,42.0,-999,-99.99,,,-99.99,,2013-03-01 19:11:00,
2013-03-01 12:21:00,31.0,21.0,-100.00,WSW,256,36.0,50.0,65,0.00,,,-99.99,,2013-03-01 19:21:00,
2013-03-01 12:31:00,32.0,21.0,-100.00,West,260,31.0,50.0,65,0.00,,,-99.99,,2013-03-01 19:31:00,
2013-03-01 12:41:00,32.0,21.0,-100.00,WSW,258,32.0,47.0,65,0.00,,,-99.99,,2013-03-01 19:41:00,
2013-03-01 12:51:00,32.0,21.0,-100.00,WSW,257,35.0,50.0,64,0.00,,,-99.99,,2013-03-01 19:51:00,
2013-03-01 13:01:00,32.0,22.0,-100.00,WSW,258,34.0,44.0,65,0.00,,,-99.99,,2013-03-01 20:01:00,
2013-03-01 13:11:00,32.0,22.0,-100.00,WSW,253,30.0,48.0,66,0.00,,,-99.99,,2013-03-01 20:11:00,
2013-03-01 13:21:00,32.0,22.0,-100.00,WSW,258,32.0,44.0,65,0.00,,,-99.99,,2013-03-01 20:21:00,
2013-03-01 13:31:00,32.0,22.0,-100.00,WSW,257,35.0,52.0,66,0.00,,,-99.99,,2013-03-01 20:31:00,
2013-03-01 13:41:00,31.0,22.0,-100.00,WSW,254,37.0,54.0,67,0.00,,,-99.99,,2013-03-01 20:41:00,
2013-03-01 13:51:00,32.0,22.0,-100.00,WSW,256,37.0,54.0,66,0.00,,,-99.99,,2013-03-01 20:51:00,
2013-03-01 14:01:00,31.0,22.0,-100.00,WSW,256,34.0,49.0,66,0.00,,,-99.99,,2013-03-01 21:01:00,
2013-03-01 14:11:00,32.0,22.0,-100.00,WSW,258,33.0,45.0,67,0.00,,,-99.99,,2013-03-01 21:11:00,
2013-03-01 14:21:00,32.0,22.0,-100.00,WSW,258,26.0,42.0,67,0.00,,,-99.99,,2013-03-01 21:21:00,
2013-03-01 14:31:00,32.0,22.0,-100.00,WSW,253,26.0,35.0,67,0.00,,,-99.99,,2013-03-01 21:31:00,
2013-03-01 14:41:00,32.0,22.0,-100.00,WSW,248,28.0,42.0,67,0.00,,,-99.99,,2013-03-01 21:41:00,
2013-03-01 14:51:00,32.0,22.0,-100.00,WSW,254,24.0,39.0,65,0.00,,,-99.99,,2013-03-01 21:51:00,
2013-03-01 15:01:00,32.0,22.0,-100.00,WSW,247,26.0,37.0,66,0.00,,,-99.99,,2013-03-01 22:01:00,
2013-03-01 15:11:00,32.0,22.0,-100.00,WSW,243,28.0,39.0,67,0.00,,,-99.99,,2013-03-01 22:11:00,
2013-03-01 15:21:00,32.0,22.0,-100.00,WSW,254,27.0,39.0,68,0.00,,,-99.99,,2013-03-01 22:21:00,
2013-03-01 15:31:00,32.0,22.0,-100.00,WSW,246,27.0,38.0,67,0.00,,,-99.99,,2013-03-01 22:31:00,
2013-03-01 15:41:00,32.0,22.0,-100.00,WSW,247,24.0,37.0,66,0.00,,,-99.99,,2013-03-01 22:41:00,
2013-03-01 15:51:00,32.0,22.0,-100.00,WSW,250,25.0,35.0,67,0.00,,,-99.99,,2013-03-01 22:51:00,
2013-03-01 16:01:00,33.0,22.0,-100.00,WSW,253,26.0,40.0,66,0.00,,,-99.99,,2013-03-01 23:01:00,
2013-03-01 16:11:00,34.0,23.0,-100.00,WSW,251,27.0,38.0,65,0.00,,,-99.99,,2013-03-01 23:11:00,
2013-03-01 16:21:00,33.0,22.0,-100.00,WSW,251,27.0,40.0,65,0.00,,,-99.99,,2013-03-01 23:21:00,
2013-03-01 16:31:00,32.0,22.0,-100.00,WSW,250,27.0,40.0,65,0.00,,,-99.99,,2013-03-01 23:31:00,
2013-03-01 16:41:00,33.0,22.0,-100.00,WSW,251,29.0,44.0,63,0.00,,,-99.99,,2013-03-01 23:41:00,
2013-03-01 16:52:00,33.0,22.0,-100.00,WSW,250,31.0,43.0,63,0.00,,,-99.99,,2013-03-01 23:52:00,
2013-03-01 17:01:00,32.0,22.0,-100.00,WSW,258,29.0,43.0,65,0.00,,,-99.99,,2013-03-02 00:01:00,
2013-03-01 17:11:00,31.0,22.0,-100.00,WSW,258,28.0,42.0,67,0.00,,,-99.99,,2013-03-02 00:11:00,
2013-03-01 17:21:00,31.0,22.0,-100.00,WSW,258,29.0,40.0,67,0.00,,,-99.99,,2013-03-02 00:21:00,
2013-03-01 17:31:00,31.0,22.0,-100.00,WSW,257,30.0,44.0,68,0.00,,,-99.99,,2013-03-02 00:31:00,
2013-03-01 17:41:00,31.0,22.0,-100.00,WSW,257,33.0,42.0,70,0.00,,,-99.99,,2013-03-02 00:41:00,
2013-03-01 17:52:00,30.0,22.0,-100.00,WSW,257,33.0,44.0,71,-99.99,,,-99.99,,2013-03-02 00:52:00,
2013-03-01 18:01:00,-999.0,-99.9,-100.00,WSW,258,32.0,43.0,-999,-99.99,,,-99.99,,2013-03-02 01:01:00,
2013-03-01 18:11:00,29.0,22.0,-100.00,WSW,257,34.0,45.0,73,0.00,,,-99.99,,2013-03-02 01:11:00,
2013-03-01 18:21:00,29.0,22.0,-100.00,WSW,257,32.0,45.0,74,0.00,,,-99.99,,2013-03-02 01:21:00,
2013-03-01 18:31:00,29.0,22.0,-100.00,WSW,258,30.0,41.0,75,0.00,,,-99.99,,2013-03-02 01:31:00,
2013-03-01 18:41:00,29.0,22.0,-100.00,WSW,258,30.0,41.0,75,0.00,,,-99.99,,2013-03-02 01:41:00,
2013-03-01 18:51:00,29.0,22.0,-100.00,West,260,27.0,35.0,76,0.00,,,-99.99,,2013-03-02 01:51:00,
2013-03-01 19:01:00,28.0,22.0,-100.00,West,260,27.0,35.0,76,0.00,,,-99.99,,2013-03-02 02:01:00,
2013-03-01 19:11:00,28.0,22.0,-100.00,West,261,25.0,35.0,76,0.00,,,-99.99,,2013-03-02 02:11:00,
2013-03-01 19:21:00,29.0,22.0,-100.00,West,263,23.0,35.0,74,0.00,,,-99.99,,2013-03-02 02:21:00,
2013-03-01 19:31:00,29.0,22.0,-100.00,West,261,26.0,36.0,74,0.00,,,-99.99,,2013-03-02 02:31:00,
2013-03-01 19:41:00,29.0,22.0,-100.00,West,261,27.0,44.0,74,0.00,,,-99.99,,2013-03-02 02:41:00,
2013-03-01 19:52:00,28.0,22.0,-100.00,West,270,20.0,29.0,76,0.00,,,-99.99,,2013-03-02 02:52:00,
2013-03-01 20:01:00,28.0,22.0,-100.00,West,268,16.0,24.0,76,0.00,,,-99.99,,2013-03-02 03:01:00,
2013-03-01 20:11:00,28.0,22.0,-100.00,West,270,13.0,22.0,76,0.00,,,-99.99,,2013-03-02 03:11:00,
2013-03-01 20:21:00,28.0,21.0,-100.00,West,264,16.0,27.0,76,0.00,,,-99.99,,2013-03-02 03:21:00,
2013-03-01 20:31:00,28.0,22.0,-100.00,West,265,21.0,32.0,76,0.00,,,-99.99,,2013-03-02 03:31:00,
2013-03-01 20:41:00,28.0,22.0,-100.00,West,261,22.0,32.0,75,0.00,,,-99.99,,2013-03-02 03:41:00,
2013-03-01 20:52:00,28.0,22.0,-100.00,West,264,24.0,36.0,75,0.00,,,-99.99,,2013-03-02 03:52:00,
2013-03-01 21:01:00,28.0,22.0,-100.00,West,263,23.0,33.0,76,0.00,,,-99.99,,2013-03-02 04:01:00,
2013-03-01 21:11:00,28.0,22.0,-100.00,West,263,23.0,33.0,76,0.00,,,-99.99,,2013-03-02 04:11:00,
2013-03-01 21:21:00,28.0,22.0,-100.00,West,264,24.0,32.0,76,0.00,,,-99.99,,2013-03-02 04:21:00,
2013-03-01 21:31:00,28.0,22.0,-100.00,West,263,22.0,34.0,77,0.00,,,-99.99,,2013-03-02 04:31:00,
2013-03-01 21:41:00,28.0,22.0,-100.00,West,263,25.0,34.0,76,0.00,,,-99.99,,2013-03-02 04:41:00,
2013-03-01 21:51:00,28.0,21.0,-100.00,West,265,21.0,34.0,77,0.00,,,-99.99,,2013-03-02 04:51:00,
2013-03-01 22:01:00,28.0,21.0,-100.00,West,270,19.0,29.0,76,0.00,,,-99.99,,2013-03-02 05:01:00,
2013-03-01 22:12:00,28.0,21.0,-100.00,West,267,22.0,38.0,77,0.00,,,-99.99,,2013-03-02 05:12:00,
2013-03-01 22:22:00,27.0,21.0,-100.00,West,270,19.0,35.0,77,0.00,,,-99.99,,2013-03-02 05:22:00,
2013-03-01 22:31:00,27.0,21.0,-100.00,West,270,22.0,34.0,76,0.00,,,-99.99,,2013-03-02 05:31:00,
2013-03-01 22:41:00,27.0,21.0,-100.00,West,270,18.0,28.0,76,0.00,,,-99.99,,2013-03-02 05:41:00,
2013-03-01 22:52:00,27.0,21.0,-100.00,West,272,18.0,31.0,77,0.00,,,-99.99,,2013-03-02 05:52:00,
2013-03-01 23:01:00,27.0,21.0,-100.00,West,272,18.0,31.0,78,0.00,,,-99.99,,2013-03-02 06:01:00,
2013-03-01 23:11:00,27.0,21.0,-100.00,West,272,18.0,28.0,78,0.00,,,-99.99,,2013-03-02 06:11:00,
2013-03-01 23:21:00,27.0,21.0,-100.00,West,271,17.0,27.0,79,0.00,,,-99.99,,2013-03-02 06:21:00,
2013-03-01 23:31:00,27.0,21.0,-100.00,West,271,17.0,29.0,79,0.00,,,-99.99,,2013-03-02 06:31:00,
2013-03-01 23:41:00,26.0,21.0,-100.00,West,271,17.0,26.0,80,0.00,,,-99.99,,2013-03-02 06:41:00,
2013-03-01 23:51:00,27.0,21.0,-100.00,West,271,19.0,27.0,79,0.00,,,-99.99,,2013-03-02 06:51:00,